Time;durP1;ratioP1;P1;durP2;ratioP2;P2;SDS_P1;SDS_P2;PMS_P1;PMS_P2;Temp;Humidity;BMP_temperature;BMP_pressure;BME280_temperature;BME280_humidity;BME280_pressure;Samples;Min_cycle;Max_cycle;Signal;HPM_P1;HPM_P2
2024/01/08 00:01:37;;;;;;;18.70;17.70;;;;;;;;;;5031251;28;20048;-62
2024/01/08 00:04:03;;;;;;;19.02;18.00;;;;;;;;;;5031717;28;20029;-62
2024/01/08 00:06:29;;;;;;;19.58;18.50;;;;;;;;;;5029771;28;20040;-63
2024/01/08 00:08:55;;;;;;;18.20;17.20;;;;;;;;;;5031876;28;20029;-62
2024/01/08 00:11:20;;;;;;;20.83;19.73;;;;;;;;;;5029325;28;20056;-62
2024/01/08 00:13:46;;;;;;;18.20;17.20;;;;;;;;;;5030973;28;20033;-62
2024/01/08 00:16:11;;;;;;;19.33;18.23;;;;;;;;;;5029055;28;20045;-63
2024/01/08 00:18:36;;;;;;;19.27;18.25;;;;;;;;;;5026764;28;20043;-62
2024/01/08 00:21:02;;;;;;;18.67;17.67;;;;;;;;;;5031478;28;20053;-62
2024/01/08 00:23:29;;;;;;;18.65;17.65;;;;;;;;;;5028554;28;20055;-62
2024/01/08 00:25:55;;;;;;;19.95;18.85;;;;;;;;;;5026657;28;20532;-62
2024/01/08 00:28:20;;;;;;;21.27;20.13;;;;;;;;;;5027222;28;20037;-62
2024/01/08 00:30:45;;;;;;;19.23;18.17;;;;;;;;;;5032080;28;20029;-62
2024/01/08 00:33:11;;;;;;;20.13;18.90;;;;;;;;;;5025371;28;20036;-61
2024/01/08 00:35:36;;;;;;;18.60;17.60;;;;;;;;;;5022194;28;20048;-62
2024/01/08 00:38:01;;;;;;;20.10;19.00;;;;;;;;;;5028510;28;20546;-62
2024/01/08 00:40:27;;;;;;;18.75;17.75;;;;;;;;;;5028821;28;20881;-62
2024/01/08 00:42:52;;;;;;;19.08;18.02;;;;;;;;;;5026864;28;20095;-62
2024/01/08 00:45:17;;;;;;;20.02;18.92;;;;;;;;;;5026948;28;20029;-62
2024/01/08 00:47:43;;;;;;;20.08;18.98;;;;;;;;;;5027977;28;20037;-62
2024/01/08 00:50:10;;;;;;;18.55;17.55;;;;;;;;;;5036846;28;20387;-62
2024/01/08 00:52:36;;;;;;;19.45;18.40;;;;;;;;;;5031001;28;20026;-62
2024/01/08 00:55:04;;;;;;;18.27;17.27;;;;;;;;;;5028951;28;20094;-62
2024/01/08 00:57:31;;;;;;;20.08;18.98;;;;;;;;;;5029942;28;20578;-62
2024/01/08 00:59:56;;;;;;;19.45;18.35;;;;;;;;;;5029371;28;20060;-62
2024/01/08 01:02:22;;;;;;;19.85;18.75;;;;;;;;;;5028220;28;20486;-62
2024/01/08 01:04:47;;;;;;;17.98;16.98;;;;;;;;;;5030000;28;20031;-63
2024/01/08 01:07:12;;;;;;;19.23;18.23;;;;;;;;;;5025698;28;20090;-62
2024/01/08 01:09:38;;;;;;;19.95;18.85;;;;;;;;;;5029428;28;20025;-62
2024/01/08 01:12:03;;;;;;;17.85;16.85;;;;;;;;;;5030802;28;20038;-62
2024/01/08 01:14:28;;;;;;;19.00;18.00;;;;;;;;;;5024535;28;20040;-62
2024/01/08 01:16:54;;;;;;;19.98;18.88;;;;;;;;;;5027146;28;20041;-62
2024/01/08 01:19:19;;;;;;;18.48;17.48;;;;;;;;;;5026857;28;20052;-62
2024/01/08 01:21:44;;;;;;;20.05;18.95;;;;;;;;;;5028632;28;20328;-62
2024/01/08 01:24:10;;;;;;;18.85;17.85;;;;;;;;;;5030589;28;20036;-62
2024/01/08 01:26:35;;;;;;;18.90;17.90;;;;;;;;;;5026675;28;20038;-62
2024/01/08 01:29:00;;;;;;;20.15;19.05;;;;;;;;;;5030835;28;20032;-62
2024/01/08 01:31:26;;;;;;;19.38;18.33;;;;;;;;;;5031348;28;20025;-62
2024/01/08 01:33:51;;;;;;;18.38;17.38;;;;;;;;;;5029875;28;20045;-63
2024/01/08 01:36:16;;;;;;;19.20;18.13;;;;;;;;;;5026359;28;20068;-62
2024/01/08 01:38:42;;;;;;;20.08;18.98;;;;;;;;;;5028754;28;20048;-62
2024/01/08 01:41:07;;;;;;;19.13;18.13;;;;;;;;;;5032139;28;20128;-63
2024/01/08 01:43:32;;;;;;;19.52;18.42;;;;;;;;;;5030119;28;20033;-63
2024/01/08 01:46:04;;;;;;;19.13;17.92;;;;;;;;;;5033282;28;20029;-63
2024/01/08 01:48:29;;;;;;;19.58;18.48;;;;;;;;;;5028735;28;20134;-63
2024/01/08 01:50:55;;;;;;;19.80;18.70;;;;;;;;;;5026290;28;20075;-63
2024/01/08 01:53:21;;;;;;;20.33;18.70;;;;;;;;;;5030541;28;20036;-63
2024/01/08 01:55:47;;;;;;;19.10;18.10;;;;;;;;;;5023667;28;20414;-63
2024/01/08 01:58:13;;;;;;;19.15;18.13;;;;;;;;;;5025573;28;20041;-62
2024/01/08 02:00:39;;;;;;;19.80;18.70;;;;;;;;;;5026769;28;20034;-62
2024/01/08 02:03:06;;;;;;;19.25;18.20;;;;;;;;;;5027940;28;20532;-63
2024/01/08 02:05:32;;;;;;;19.02;18.02;;;;;;;;;;5027359;28;20121;-62
2024/01/08 02:07:58;;;;;;;19.20;18.20;;;;;;;;;;5025655;28;20100;-62
2024/01/08 02:10:24;;;;;;;18.42;17.42;;;;;;;;;;5024682;28;20132;-63
2024/01/08 02:12:50;;;;;;;19.40;18.30;;;;;;;;;;5030970;28;20041;-63
2024/01/08 02:15:15;;;;;;;18.83;17.83;;;;;;;;;;5031173;28;20099;-63
2024/01/08 02:17:41;;;;;;;19.48;18.38;;;;;;;;;;5026988;28;20034;-63
2024/01/08 02:20:07;;;;;;;20.40;19.30;;;;;;;;;;5032753;28;20037;-63
2024/01/08 02:22:40;;;;;;;20.15;19.05;;;;;;;;;;5027310;28;20033;-63
2024/01/08 02:25:07;;;;;;;20.30;19.20;;;;;;;;;;5030239;28;20030;-62
2024/01/08 02:27:32;;;;;;;19.15;18.00;;;;;;;;;;5025419;28;20083;-62
2024/01/08 02:29:57;;;;;;;19.35;18.27;;;;;;;;;;5027681;28;20045;-63
2024/01/08 02:32:23;;;;;;;19.33;18.23;;;;;;;;;;5030018;28;20544;-63
2024/01/08 02:34:48;;;;;;;18.77;17.77;;;;;;;;;;5029127;28;20029;-62
2024/01/08 02:37:14;;;;;;;18.98;17.98;;;;;;;;;;5038507;28;20033;-63
2024/01/08 02:39:39;;;;;;;19.88;18.55;;;;;;;;;;5035079;28;20414;-63
2024/01/08 02:42:05;;;;;;;19.63;18.52;;;;;;;;;;5016635;28;20064;-63
2024/01/08 02:44:30;;;;;;;20.17;19.08;;;;;;;;;;5033077;28;20036;-63
2024/01/08 02:46:55;;;;;;;18.80;17.80;;;;;;;;;;5028831;28;20064;-63
2024/01/08 02:49:20;;;;;;;19.60;18.50;;;;;;;;;;5039069;28;20050;-64
2024/01/08 02:51:46;;;;;;;18.17;17.17;;;;;;;;;;5029342;28;20032;-63
2024/01/08 02:54:11;;;;;;;19.77;18.67;;;;;;;;;;5035343;28;20348;-63
2024/01/08 02:56:36;;;;;;;18.73;17.73;;;;;;;;;;5029725;28;20037;-64
2024/01/08 02:59:06;;;;;;;19.95;18.85;;;;;;;;;;5031212;28;20038;-63
2024/01/08 03:01:32;;;;;;;18.67;17.67;;;;;;;;;;5028515;28;20543;-63
2024/01/08 03:03:57;;;;;;;18.80;17.80;;;;;;;;;;5033291;28;20366;-63
2024/01/08 03:06:23;;;;;;;18.60;17.60;;;;;;;;;;5034366;28;20037;-63
2024/01/08 03:08:48;;;;;;;18.42;17.42;;;;;;;;;;5028501;28;20034;-63
2024/01/08 03:11:13;;;;;;;19.55;18.45;;;;;;;;;;5033828;28;20037;-63
2024/01/08 03:13:39;;;;;;;19.55;18.48;;;;;;;;;;5015029;28;20033;-63
2024/01/08 03:16:05;;;;;;;19.45;18.35;;;;;;;;;;5028711;28;20037;-63
2024/01/08 03:18:30;;;;;;;18.48;17.48;;;;;;;;;;5032394;28;20454;-62
2024/01/08 03:20:55;;;;;;;19.42;18.33;;;;;;;;;;5030937;28;20107;-63
2024/01/08 03:23:21;;;;;;;19.65;18.55;;;;;;;;;;5030387;28;20030;-63
2024/01/08 03:25:46;;;;;;;19.83;18.73;;;;;;;;;;5028898;28;20057;-63
2024/01/08 03:28:12;;;;;;;19.70;18.60;;;;;;;;;;5026905;28;20033;-63
2024/01/08 03:30:37;;;;;;;19.00;18.00;;;;;;;;;;5030303;28;20116;-62
2024/01/08 03:33:03;;;;;;;19.00;17.92;;;;;;;;;;5030099;28;20118;-63
2024/01/08 03:35:28;;;;;;;19.40;18.30;;;;;;;;;;5029080;28;20056;-63
2024/01/08 03:37:53;;;;;;;20.35;19.20;;;;;;;;;;5024495;28;20068;-63
2024/01/08 03:40:19;;;;;;;20.77;19.27;;;;;;;;;;5027920;28;20072;-62
2024/01/08 03:42:45;;;;;;;18.80;17.77;;;;;;;;;;5035684;28;20132;-63
2024/01/08 03:45:10;;;;;;;18.65;17.65;;;;;;;;;;5034843;28;20030;-63
2024/01/08 03:47:36;;;;;;;19.73;18.63;;;;;;;;;;5032790;28;20043;-63
2024/01/08 03:50:01;;;;;;;19.52;18.45;;;;;;;;;;5032180;28;20526;-63
2024/01/08 03:52:27;;;;;;;19.98;18.88;;;;;;;;;;5030888;28;20025;-63
2024/01/08 03:54:52;;;;;;;18.38;17.38;;;;;;;;;;5026829;28;20033;-63
2024/01/08 03:57:17;;;;;;;19.83;18.73;;;;;;;;;;5029484;28;20033;-63
2024/01/08 03:59:43;;;;;;;18.90;17.90;;;;;;;;;;5032052;28;20144;-63
2024/01/08 04:02:08;;;;;;;19.42;18.33;;;;;;;;;;5032907;28;20045;-64
2024/01/08 04:04:33;;;;;;;19.27;18.17;;;;;;;;;;5032913;28;20033;-63
2024/01/08 04:06:59;;;;;;;19.55;18.45;;;;;;;;;;5027296;28;20030;-63
2024/01/08 04:09:25;;;;;;;20.15;19.05;;;;;;;;;;5032767;28;20063;-63
2024/01/08 04:11:50;;;;;;;18.80;17.80;;;;;;;;;;5030423;28;20356;-62
2024/01/08 04:14:15;;;;;;;18.73;17.73;;;;;;;;;;5029875;28;20612;-62
2024/01/08 04:16:41;;;;;;;19.92;18.83;;;;;;;;;;5027496;28;20032;-63
2024/01/08 04:19:07;;;;;;;20.08;18.98;;;;;;;;;;5035852;28;20044;-63
2024/01/08 04:21:32;;;;;;;19.55;18.45;;;;;;;;;;5027773;28;20068;-63
2024/01/08 04:23:58;;;;;;;19.52;18.42;;;;;;;;;;5030299;28;20467;-63
2024/01/08 04:26:25;;;;;;;19.83;18.73;;;;;;;;;;5030003;28;20040;-63
2024/01/08 04:28:51;;;;;;;21.33;20.13;;;;;;;;;;5028508;28;20518;-63
2024/01/08 04:31:20;;;;;;;19.38;18.27;;;;;;;;;;5028534;28;20033;-64
2024/01/08 04:33:46;;;;;;;19.05;18.00;;;;;;;;;;5023921;28;20044;-63
2024/01/08 04:36:13;;;;;;;19.88;18.77;;;;;;;;;;5028572;28;20052;-62
2024/01/08 04:38:39;;;;;;;19.88;18.77;;;;;;;;;;5030998;28;20048;-63
2024/01/08 04:41:10;;;;;;;19.35;18.25;;;;;;;;;;5031761;28;20110;-62
2024/01/08 04:43:36;;;;;;;20.20;19.10;;;;;;;;;;5026077;28;20052;-63
2024/01/08 04:46:01;;;;;;;19.50;18.40;;;;;;;;;;5032402;28;20044;-63
2024/01/08 04:48:26;;;;;;;19.95;18.85;;;;;;;;;;5030311;28;20076;-63
2024/01/08 04:50:52;;;;;;;19.88;18.77;;;;;;;;;;5029809;28;20045;-63
2024/01/08 04:53:17;;;;;;;19.75;18.65;;;;;;;;;;5028094;28;20041;-63
2024/01/08 04:55:42;;;;;;;20.02;18.92;;;;;;;;;;5029972;28;20075;-63
2024/01/08 04:58:08;;;;;;;19.02;17.92;;;;;;;;;;5027737;28;20100;-64
2024/01/08 05:00:34;;;;;;;19.73;18.63;;;;;;;;;;5026149;28;20041;-63
2024/01/08 05:02:59;;;;;;;20.23;19.13;;;;;;;;;;5031322;28;20112;-63
2024/01/08 05:05:25;;;;;;;19.98;18.85;;;;;;;;;;5026198;28;20037;-64
2024/01/08 05:07:50;;;;;;;19.02;18.00;;;;;;;;;;5031070;28;20029;-64
2024/01/08 05:10:15;;;;;;;20.35;19.25;;;;;;;;;;5033747;28;20045;-63
2024/01/08 05:12:40;;;;;;;19.48;18.40;;;;;;;;;;5029773;28;20159;-63
2024/01/08 05:15:06;;;;;;;19.58;18.48;;;;;;;;;;5028263;28;20378;-64
2024/01/08 05:17:32;;;;;;;19.55;18.45;;;;;;;;;;5029956;28;20036;-63
2024/01/08 05:19:57;;;;;;;20.13;19.02;;;;;;;;;;5027243;28;20479;-63
2024/01/08 05:22:23;;;;;;;19.48;18.38;;;;;;;;;;5027163;28;20033;-64
2024/01/08 05:24:48;;;;;;;19.80;18.70;;;;;;;;;;5030569;28;20486;-63
2024/01/08 05:27:13;;;;;;;19.63;18.52;;;;;;;;;;5024360;28;20056;-64
2024/01/08 05:29:39;;;;;;;19.17;18.13;;;;;;;;;;5028141;28;20478;-63
2024/01/08 05:32:05;;;;;;;20.02;18.92;;;;;;;;;;5030615;28;20458;-63
2024/01/08 05:34:31;;;;;;;19.58;18.48;;;;;;;;;;5025971;28;20399;-64
2024/01/08 05:36:56;;;;;;;20.70;19.30;;;;;;;;;;5029848;28;20075;-63
2024/01/08 05:39:22;;;;;;;20.05;18.85;;;;;;;;;;5030153;28;20061;-63
2024/01/08 05:41:47;;;;;;;20.75;19.63;;;;;;;;;;5029614;28;20119;-63
2024/01/08 05:44:13;;;;;;;19.92;18.83;;;;;;;;;;5032085;28;20065;-63
2024/01/08 05:46:42;;;;;;;20.15;19.05;;;;;;;;;;5027655;28;20175;-63
2024/01/08 05:49:07;;;;;;;19.85;18.75;;;;;;;;;;5029586;28;20155;-62
2024/01/08 05:51:33;;;;;;;19.88;18.77;;;;;;;;;;5026401;28;20048;-63
2024/01/08 05:53:58;;;;;;;19.80;18.70;;;;;;;;;;5028000;28;20021;-62
2024/01/08 05:56:23;;;;;;;21.00;19.90;;;;;;;;;;5024289;28;20051;-64
2024/01/08 05:58:49;;;;;;;19.67;18.58;;;;;;;;;;5030128;28;20051;-63
2024/01/08 06:01:14;;;;;;;18.92;17.92;;;;;;;;;;5030335;28;20036;-63
2024/01/08 06:03:40;;;;;;;20.15;19.05;;;;;;;;;;5026698;28;20037;-63
2024/01/08 06:06:05;;;;;;;20.10;19.00;;;;;;;;;;5029839;28;20347;-63
2024/01/08 06:08:31;;;;;;;20.83;19.65;;;;;;;;;;5031085;28;20114;-63
2024/01/08 06:10:57;;;;;;;19.15;18.13;;;;;;;;;;5039337;28;20041;-63
2024/01/08 06:13:22;;;;;;;21.33;20.13;;;;;;;;;;5035852;28;20041;-63
2024/01/08 06:15:47;;;;;;;21.80;20.60;;;;;;;;;;5034162;28;20380;-63
2024/01/08 06:18:14;;;;;;;19.30;18.20;;;;;;;;;;5036498;28;20526;-64
2024/01/08 06:20:39;;;;;;;19.90;18.80;;;;;;;;;;5035913;28;20033;-63
2024/01/08 06:23:04;;;;;;;20.25;19.15;;;;;;;;;;5037328;28;20374;-63
2024/01/08 06:25:30;;;;;;;19.52;18.42;;;;;;;;;;5030614;28;20115;-63
2024/01/08 06:27:55;;;;;;;18.90;17.90;;;;;;;;;;5032631;28;20951;-62
2024/01/08 06:30:21;;;;;;;19.48;18.38;;;;;;;;;;5033908;28;20042;-63
2024/01/08 06:32:46;;;;;;;19.80;18.70;;;;;;;;;;5029857;28;20026;-63
2024/01/08 06:35:11;;;;;;;18.88;17.88;;;;;;;;;;5033433;28;20029;-63
2024/01/08 06:37:37;;;;;;;18.83;17.80;;;;;;;;;;5037235;28;20037;-63
2024/01/08 06:40:03;;;;;;;18.95;17.90;;;;;;;;;;5036856;28;20041;-62
2024/01/08 06:42:28;;;;;;;19.83;18.73;;;;;;;;;;5033315;28;20375;-63
2024/01/08 06:44:53;;;;;;;20.60;19.50;;;;;;;;;;5033595;28;20040;-63
2024/01/08 06:47:19;;;;;;;19.48;18.38;;;;;;;;;;5032064;28;20470;-62
2024/01/08 06:49:44;;;;;;;19.60;18.50;;;;;;;;;;5033573;28;20068;-63
2024/01/08 06:52:10;;;;;;;20.63;19.52;;;;;;;;;;5036726;28;20067;-62
2024/01/08 06:54:35;;;;;;;21.45;20.17;;;;;;;;;;5038107;28;20037;-63
2024/01/08 06:57:00;;;;;;;20.52;19.42;;;;;;;;;;5033552;28;20538;-63
2024/01/08 06:59:26;;;;;;;20.40;19.27;;;;;;;;;;5033058;28;20368;-63
2024/01/08 07:01:51;;;;;;;19.90;18.80;;;;;;;;;;5031502;28;20025;-63
2024/01/08 07:04:17;;;;;;;20.60;19.50;;;;;;;;;;5033674;28;20053;-62
2024/01/08 07:06:43;;;;;;;20.55;19.35;;;;;;;;;;5036758;28;20033;-63
2024/01/08 07:09:08;;;;;;;21.60;20.40;;;;;;;;;;5031485;28;20036;-63
2024/01/08 07:11:34;;;;;;;20.90;19.80;;;;;;;;;;5032522;28;20045;-63
2024/01/08 07:13:59;;;;;;;20.15;19.05;;;;;;;;;;5036122;28;20403;-62
2024/01/08 07:16:25;;;;;;;21.23;19.88;;;;;;;;;;5031752;28;20083;-62
2024/01/08 07:18:50;;;;;;;20.90;19.80;;;;;;;;;;5034697;28;20083;-63
2024/01/08 07:21:16;;;;;;;21.10;19.90;;;;;;;;;;5031158;28;20337;-63
2024/01/08 07:23:45;;;;;;;20.58;19.48;;;;;;;;;;5028989;28;20029;-63
2024/01/08 07:26:14;;;;;;;20.73;19.63;;;;;;;;;;5033407;28;20040;-63
2024/01/08 07:28:42;;;;;;;21.05;19.85;;;;;;;;;;5030710;28;20102;-63
2024/01/08 07:31:07;;;;;;;21.25;20.08;;;;;;;;;;5033398;28;20025;-63
2024/01/08 07:33:33;;;;;;;21.60;20.40;;;;;;;;;;5031358;28;20040;-63
2024/01/08 07:35:59;;;;;;;22.15;20.95;;;;;;;;;;5031208;28;20099;-63
2024/01/08 07:38:24;;;;;;;21.95;20.75;;;;;;;;;;5031130;28;20439;-63
2024/01/08 07:40:50;;;;;;;21.23;20.08;;;;;;;;;;5031759;28;20140;-63
2024/01/08 07:43:15;;;;;;;21.50;20.33;;;;;;;;;;5030587;28;20029;-62
2024/01/08 07:45:40;;;;;;;21.60;20.40;;;;;;;;;;5028010;28;20886;-63
2024/01/08 07:48:06;;;;;;;23.33;22.02;;;;;;;;;;5031247;28;20148;-62
2024/01/08 07:50:31;;;;;;;21.75;20.50;;;;;;;;;;5028663;28;20053;-63
2024/01/08 07:52:57;;;;;;;20.95;19.83;;;;;;;;;;5031089;28;20030;-64
2024/01/08 07:55:22;;;;;;;20.85;19.67;;;;;;;;;;5031465;28;20091;-63
2024/01/08 07:57:48;;;;;;;21.65;20.45;;;;;;;;;;5029930;28;20029;-63
2024/01/08 08:00:13;;;;;;;21.67;20.48;;;;;;;;;;5029584;28;20064;-63
2024/01/08 08:02:39;;;;;;;22.63;21.42;;;;;;;;;;5030353;28;20627;-62
2024/01/08 08:05:05;;;;;;;22.80;21.60;;;;;;;;;;5030460;28;20120;-63
2024/01/08 08:07:31;;;;;;;21.67;20.48;;;;;;;;;;5022678;28;20121;-62
2024/01/08 08:09:57;;;;;;;23.45;22.17;;;;;;;;;;5031501;28;20041;-62
2024/01/08 08:12:22;;;;;;;21.90;20.70;;;;;;;;;;5030006;28;20025;-63
2024/01/08 08:14:48;;;;;;;22.60;21.30;;;;;;;;;;5029256;28;20551;-63
2024/01/08 08:17:14;;;;;;;21.95;20.75;;;;;;;;;;5021653;28;20025;-63
2024/01/08 08:19:43;;;;;;;22.70;21.50;;;;;;;;;;5027595;28;20129;-63
2024/01/08 08:22:12;;;;;;;21.88;20.67;;;;;;;;;;5032847;28;20048;-63
2024/01/08 08:24:39;;;;;;;24.27;22.98;;;;;;;;;;5024039;28;20094;-64
2024/01/08 08:27:05;;;;;;;23.42;22.13;;;;;;;;;;5029412;28;20110;-63
2024/01/08 08:29:31;;;;;;;24.50;23.00;;;;;;;;;;5030685;28;20029;-63
2024/01/08 08:31:57;;;;;;;21.42;20.23;;;;;;;;;;5028814;28;20399;-63
2024/01/08 08:34:22;;;;;;;19.02;18.00;;;;;;;;;;5032523;28;20024;-63
2024/01/08 08:36:47;;;;;;;23.42;22.15;;;;;;;;;;5029454;28;20497;-63
2024/01/08 08:39:16;;;;;;;21.42;20.23;;;;;;;;;;5037684;28;20041;-63
2024/01/08 08:41:45;;;;;;;21.63;20.45;;;;;;;;;;5029911;28;20040;-63
2024/01/08 08:44:12;;;;;;;20.85;19.73;;;;;;;;;;5030858;28;20099;-63
2024/01/08 08:46:38;;;;;;;21.73;20.35;;;;;;;;;;5025340;28;20478;-63
2024/01/08 08:49:03;;;;;;;22.40;21.10;;;;;;;;;;5028231;28;20068;-63
2024/01/08 08:51:29;;;;;;;22.02;20.83;;;;;;;;;;5028771;28;20040;-63
2024/01/08 08:53:54;;;;;;;21.60;20.42;;;;;;;;;;5028992;28;20122;-64
2024/01/08 08:56:20;;;;;;;21.85;20.65;;;;;;;;;;5026857;28;20033;-63
2024/01/08 08:58:45;;;;;;;24.27;22.98;;;;;;;;;;5025894;28;20107;-63
2024/01/08 09:01:11;;;;;;;24.67;23.30;;;;;;;;;;5027298;28;20581;-63
2024/01/08 09:03:37;;;;;;;27.20;25.77;;;;;;;;;;5025501;28;20036;-63
2024/01/08 09:06:02;;;;;;;28.92;27.42;;;;;;;;;;5030148;28;20178;-63
2024/01/08 09:08:28;;;;;;;28.05;26.55;;;;;;;;;;5028355;28;20159;-63
2024/01/08 09:10:53;;;;;;;28.92;27.42;;;;;;;;;;5031145;28;20033;-64
2024/01/08 09:13:19;;;;;;;27.25;25.85;;;;;;;;;;5024302;28;20056;-63
2024/01/08 09:15:44;;;;;;;31.08;29.45;;;;;;;;;;5027139;28;20466;-63
2024/01/08 09:18:09;;;;;;;27.55;26.05;;;;;;;;;;5029151;28;20049;-62
2024/01/08 09:20:35;;;;;;;27.58;26.13;;;;;;;;;;5023648;28;20025;-62
2024/01/08 09:23:00;;;;;;;29.48;27.88;;;;;;;;;;5027555;28;20483;-63
2024/01/08 09:25:25;;;;;;;28.88;27.23;;;;;;;;;;5027831;28;20170;-63
2024/01/08 09:27:51;;;;;;;29.60;28.02;;;;;;;;;;5020168;28;20712;-63
2024/01/08 09:30:16;;;;;;;30.52;28.92;;;;;;;;;;5027453;28;20671;-62
2024/01/08 09:32:41;;;;;;;29.27;27.50;;;;;;;;;;5026137;28;20021;-63
2024/01/08 09:35:07;;;;;;;29.48;27.90;;;;;;;;;;5026744;28;20033;-62
2024/01/08 09:37:32;;;;;;;28.90;27.33;;;;;;;;;;5028492;28;20025;-62
2024/01/08 09:39:57;;;;;;;29.45;27.67;;;;;;;;;;5030581;28;20041;-62
2024/01/08 09:42:27;;;;;;;30.27;28.67;;;;;;;;;;5027329;28;20044;-63
2024/01/08 09:44:54;;;;;;;27.45;25.92;;;;;;;;;;5025422;28;20482;-63
2024/01/08 09:47:20;;;;;;;25.08;23.77;;;;;;;;;;5033785;28;20449;-63
2024/01/08 09:49:46;;;;;;;25.58;24.23;;;;;;;;;;5028774;28;20037;-63
2024/01/08 09:52:13;;;;;;;25.38;24.02;;;;;;;;;;5030258;28;20041;-63
2024/01/08 09:54:40;;;;;;;25.63;23.77;;;;;;;;;;5028470;28;20039;-62
2024/01/08 09:57:08;;;;;;;25.73;24.33;;;;;;;;;;5027212;28;20037;-62
2024/01/08 09:59:34;;;;;;;24.65;23.35;;;;;;;;;;5027219;28;20129;-62
2024/01/08 10:02:00;;;;;;;22.98;21.77;;;;;;;;;;5025229;28;20113;-62
2024/01/08 10:04:26;;;;;;;23.67;22.40;;;;;;;;;;5028434;28;20045;-62
2024/01/08 10:07:06;;;;;;;23.35;22.10;;;;;;;;;;5025753;28;20037;-63
2024/01/08 10:09:31;;;;;;;24.15;22.85;;;;;;;;;;5031680;28;20040;-63
2024/01/08 10:11:57;;;;;;;22.50;21.30;;;;;;;;;;5028726;28;20052;-62
2024/01/08 10:14:23;;;;;;;21.60;20.40;;;;;;;;;;5029676;28;20033;-63
2024/01/08 10:16:49;;;;;;;22.60;21.40;;;;;;;;;;5026594;28;20483;-63
2024/01/08 10:19:15;;;;;;;23.00;21.80;;;;;;;;;;5028750;28;20035;-63
2024/01/08 10:21:41;;;;;;;22.30;21.10;;;;;;;;;;5028327;28;20125;-63
2024/01/08 10:24:08;;;;;;;23.42;22.13;;;;;;;;;;5023776;28;20116;-63
2024/01/08 10:26:34;;;;;;;22.00;20.80;;;;;;;;;;5028326;28;20041;-63
2024/01/08 10:29:02;;;;;;;23.70;22.40;;;;;;;;;;5027680;28;20103;-62
2024/01/08 10:31:27;;;;;;;23.23;22.00;;;;;;;;;;5028750;28;20037;-62
2024/01/08 10:34:02;;;;;;;22.25;20.98;;;;;;;;;;5025150;28;20488;-63
2024/01/08 10:36:30;;;;;;;25.63;24.08;;;;;;;;;;5026139;28;20045;-62
2024/01/08 10:38:57;;;;;;;23.85;22.55;;;;;;;;;;5028301;28;20049;-63
2024/01/08 10:41:23;;;;;;;23.27;22.05;;;;;;;;;;5031299;28;20083;-63
2024/01/08 10:43:48;;;;;;;23.45;22.15;;;;;;;;;;5024154;28;20437;-62
2024/01/08 10:46:14;;;;;;;24.05;22.58;;;;;;;;;;5025320;28;20105;-62
2024/01/08 10:48:42;;;;;;;23.38;22.08;;;;;;;;;;5027082;28;20057;-63
2024/01/08 10:51:09;;;;;;;22.90;21.67;;;;;;;;;;5026202;28;20052;-62
2024/01/08 10:54:00;;;;;;;24.48;23.08;;;;;;;;;;5020728;28;20041;-62
2024/01/08 10:56:28;;;;;;;;;;;;;;;;;;5028003;28;20046;-62
2024/01/08 10:59:06;;;;;;;24.90;23.60;;;;;;;;;;5030733;28;19912;-62
2024/01/08 11:01:32;;;;;;;25.48;24.15;;;;;;;;;;5028980;28;20030;-62
2024/01/08 11:03:59;;;;;;;27.50;26.00;;;;;;;;;;5025816;28;20166;-62
2024/01/08 11:06:25;;;;;;;27.73;26.27;;;;;;;;;;5031438;28;20036;-62
2024/01/08 11:08:50;;;;;;;26.95;25.48;;;;;;;;;;5029747;28;20037;-62
2024/01/08 11:11:17;;;;;;;25.48;24.17;;;;;;;;;;5030110;28;20167;-62
2024/01/08 11:13:43;;;;;;;24.90;23.60;;;;;;;;;;5029157;28;20099;-62
2024/01/08 11:16:13;;;;;;;27.15;25.50;;;;;;;;;;5029909;28;20394;-62
2024/01/08 11:18:38;;;;;;;27.58;26.08;;;;;;;;;;5029801;28;20048;-62
2024/01/08 11:21:05;;;;;;;26.00;24.60;;;;;;;;;;5031858;28;21137;-62
2024/01/08 11:23:40;;;;;;;24.05;22.73;;;;;;;;;;5028541;28;20399;-62
2024/01/08 11:26:21;;;;;;;23.85;22.55;;;;;;;;;;5023316;28;20128;-62
2024/01/08 11:29:05;;;;;;;25.23;23.88;;;;;;;;;;5029674;28;20033;-62
2024/01/08 11:31:40;;;;;;;27.02;25.60;;;;;;;;;;5033109;28;20086;-62
2024/01/08 11:34:30;;;;;;;26.38;24.98;;;;;;;;;;5033394;28;20175;-62
2024/01/08 11:37:17;;;;;;;26.80;25.40;;;;;;;;;;5027627;28;20052;-62
2024/01/08 11:39:43;;;;;;;26.98;25.40;;;;;;;;;;5026313;28;20025;-62
2024/01/08 11:42:08;;;;;;;25.48;24.15;;;;;;;;;;5028723;28;20048;-62
2024/01/08 11:44:34;;;;;;;25.55;24.20;;;;;;;;;;5029673;28;20044;-62
2024/01/08 11:46:59;;;;;;;27.25;25.75;;;;;;;;;;5030651;28;20040;-62
2024/01/08 11:49:25;;;;;;;26.20;24.73;;;;;;;;;;5029333;28;20033;-62
2024/01/08 11:51:59;;;;;;;26.90;24.95;;;;;;;;;;5030984;28;20075;-62
2024/01/08 11:54:25;;;;;;;24.75;23.45;;;;;;;;;;5031111;28;20848;-62
2024/01/08 11:56:51;;;;;;;25.50;23.95;;;;;;;;;;5025122;28;21803;-62
2024/01/08 11:59:30;;;;;;;24.13;22.83;;;;;;;;;;5031428;28;20033;-62
2024/01/08 12:01:55;;;;;;;23.52;22.25;;;;;;;;;;5031775;28;20029;-62
2024/01/08 12:04:20;;;;;;;23.30;22.00;;;;;;;;;;5015237;28;20458;-62
2024/01/08 12:06:46;;;;;;;24.08;22.67;;;;;;;;;;5028705;28;20125;-62
2024/01/08 12:09:12;;;;;;;24.33;23.02;;;;;;;;;;5034411;28;21203;-63
2024/01/08 12:11:37;;;;;;;21.95;20.75;;;;;;;;;;5032316;28;20112;-62
2024/01/08 12:14:02;;;;;;;24.02;22.73;;;;;;;;;;5031444;28;20489;-62
2024/01/08 12:16:28;;;;;;;23.20;21.98;;;;;;;;;;5030265;28;20116;-63
2024/01/08 12:18:53;;;;;;;23.20;21.90;;;;;;;;;;5029430;28;20095;-64
2024/01/08 12:21:19;;;;;;;24.60;23.30;;;;;;;;;;5026457;28;20047;-63
2024/01/08 12:23:44;;;;;;;24.73;23.38;;;;;;;;;;5031919;28;20104;-64
2024/01/08 12:26:10;;;;;;;24.23;22.80;;;;;;;;;;5022618;28;20912;-63
2024/01/08 12:28:35;;;;;;;24.90;23.60;;;;;;;;;;5026664;28;20032;-64
2024/01/08 12:31:01;;;;;;;26.45;24.85;;;;;;;;;;5029908;28;20537;-64
2024/01/08 12:33:26;;;;;;;26.83;25.42;;;;;;;;;;5027541;28;20037;-63
2024/01/08 12:35:55;;;;;;;26.85;25.35;;;;;;;;;;5026754;28;20045;-63
2024/01/08 12:38:21;;;;;;;25.92;24.52;;;;;;;;;;5021962;28;20432;-63
2024/01/08 12:40:53;;;;;;;26.52;25.13;;;;;;;;;;5028719;28;20501;-63
2024/01/08 12:43:19;;;;;;;24.98;23.67;;;;;;;;;;5025550;28;20082;-63
2024/01/08 12:45:49;;;;;;;25.02;23.73;;;;;;;;;;5023337;28;20033;-63
2024/01/08 12:48:15;;;;;;;26.65;25.25;;;;;;;;;;5027508;28;20041;-63
2024/01/08 12:50:41;;;;;;;26.80;25.30;;;;;;;;;;5024837;28;20383;-64
2024/01/08 12:53:07;;;;;;;27.52;26.02;;;;;;;;;;5026167;28;20037;-63
2024/01/08 12:55:32;;;;;;;26.58;24.95;;;;;;;;;;5027835;28;20060;-62
2024/01/08 12:57:58;;;;;;;26.45;24.98;;;;;;;;;;5022188;28;20391;-62
2024/01/08 13:00:28;;;;;;;27.52;25.92;;;;;;;;;;5022138;28;20029;-63
2024/01/08 13:02:54;;;;;;;26.48;25.05;;;;;;;;;;5025232;28;20036;-62
2024/01/08 13:05:20;;;;;;;26.45;24.95;;;;;;;;;;5030853;28;20032;-62
2024/01/08 13:07:45;;;;;;;27.98;26.42;;;;;;;;;;5025016;28;20045;-62
2024/01/08 13:10:11;;;;;;;23.17;21.95;;;;;;;;;;5033062;28;20176;-62
2024/01/08 13:12:38;;;;;;;24.25;22.85;;;;;;;;;;5023186;28;20470;-62
2024/01/08 13:15:05;;;;;;;26.00;24.50;;;;;;;;;;5022379;28;20037;-62
2024/01/08 13:17:30;;;;;;;23.38;22.08;;;;;;;;;;5024018;28;20045;-62
2024/01/08 13:19:55;;;;;;;27.42;25.70;;;;;;;;;;5027594;28;20450;-62
2024/01/08 13:22:21;;;;;;;25.05;23.70;;;;;;;;;;5025416;28;20048;-62
2024/01/08 13:24:46;;;;;;;26.95;25.50;;;;;;;;;;5026377;28;20738;-62
2024/01/08 13:27:13;;;;;;;25.40;24.00;;;;;;;;;;5025236;28;20413;-62
2024/01/08 13:29:42;;;;;;;26.27;24.48;;;;;;;;;;5024881;28;20049;-62
2024/01/08 13:32:08;;;;;;;25.00;23.70;;;;;;;;;;5025185;28;20037;-63
2024/01/08 13:34:33;;;;;;;27.38;24.98;;;;;;;;;;5024995;28;20033;-63
2024/01/08 13:36:59;;;;;;;24.90;23.52;;;;;;;;;;5024883;28;20114;-62
2024/01/08 13:39:25;;;;;;;26.13;24.67;;;;;;;;;;5027592;28;20112;-62
2024/01/08 13:41:51;;;;;;;25.88;24.02;;;;;;;;;;5028732;28;20033;-62
2024/01/08 13:44:16;;;;;;;26.80;25.35;;;;;;;;;;5032254;28;20041;-62
2024/01/08 13:46:42;;;;;;;26.38;24.77;;;;;;;;;;5027516;28;20033;-62
2024/01/08 13:49:07;;;;;;;25.48;24.15;;;;;;;;;;5032979;28;20033;-62
2024/01/08 13:51:32;;;;;;;26.90;25.45;;;;;;;;;;5027379;28;20048;-62
2024/01/08 13:53:58;;;;;;;27.85;26.35;;;;;;;;;;5031697;28;20176;-62
2024/01/08 13:56:23;;;;;;;27.75;26.27;;;;;;;;;;5028399;28;20930;-62
2024/01/08 13:58:49;;;;;;;28.17;26.67;;;;;;;;;;5028283;28;20796;-62
2024/01/08 14:01:15;;;;;;;28.33;26.38;;;;;;;;;;5031077;28;20033;-62
2024/01/08 14:03:42;;;;;;;27.23;25.80;;;;;;;;;;5020083;28;20041;-63
2024/01/08 14:06:08;;;;;;;26.05;24.65;;;;;;;;;;5035803;28;20474;-62
2024/01/08 14:08:33;;;;;;;24.65;23.35;;;;;;;;;;5027024;28;20093;-62
2024/01/08 14:10:59;;;;;;;25.35;23.95;;;;;;;;;;5026223;28;20047;-62
2024/01/08 14:13:25;;;;;;;24.25;22.95;;;;;;;;;;5027501;28;20095;-62